Time;durP1;ratioP1;P1;durP2;ratioP2;P2;SDS_P1;SDS_P2;PMS_P1;PMS_P2;Temp;Humidity;BMP_temperature;BMP_pressure;BME280_temperature;BME280_humidity;BME280_pressure;Samples;Min_cycle;Max_cycle;Signal;HPM_P1;HPM_P2
2023/05/19 00:01:28;;;;;;;0.00;0.00;;;;;;;;;;4954780;29;20526;-83
2023/05/19 00:03:56;;;;;;;0.00;0.00;;;;;;;;;;4955454;29;20142;-84
2023/05/19 00:06:26;;;;;;;0.00;0.00;;;;;;;;;;4938789;29;20389;-83
2023/05/19 00:08:57;;;;;;;0.00;0.00;;;;;;;;;;4954263;29;20086;-82
2023/05/19 00:11:24;;;;;;;0.00;0.00;;;;;;;;;;4953955;28;20047;-83
2023/05/19 00:13:50;;;;;;;0.00;0.00;;;;;;;;;;4954561;29;20106;-83
2023/05/19 00:16:17;;;;;;;0.00;0.00;;;;;;;;;;4955283;29;20047;-83
2023/05/19 00:18:43;;;;;;;0.00;0.00;;;;;;;;;;4954204;29;20106;-83
2023/05/19 00:21:09;;;;;;;0.00;0.00;;;;;;;;;;4954961;28;20043;-83
2023/05/19 00:23:35;;;;;;;0.00;0.00;;;;;;;;;;4953935;29;20051;-82
2023/05/19 00:26:01;;;;;;;0.00;0.00;;;;;;;;;;4955559;29;20179;-83
2023/05/19 00:28:27;;;;;;;0.00;0.00;;;;;;;;;;4953878;29;20162;-83
2023/05/19 00:30:53;;;;;;;0.00;0.00;;;;;;;;;;4954985;28;20035;-82
2023/05/19 00:33:19;;;;;;;0.00;0.00;;;;;;;;;;4954209;29;20050;-83
2023/05/19 00:35:45;;;;;;;0.00;0.00;;;;;;;;;;4954878;29;20047;-83
2023/05/19 00:38:11;;;;;;;0.00;0.00;;;;;;;;;;4953652;29;20392;-82
2023/05/19 00:40:37;;;;;;;0.00;0.00;;;;;;;;;;4954807;28;20051;-83
2023/05/19 00:43:04;;;;;;;0.00;0.00;;;;;;;;;;4953576;29;20043;-83
2023/05/19 00:45:30;;;;;;;0.00;0.00;;;;;;;;;;4954743;29;20043;-83
2023/05/19 00:47:56;;;;;;;0.00;0.00;;;;;;;;;;4937896;29;20031;-83
2023/05/19 00:50:27;;;;;;;0.00;0.00;;;;;;;;;;4954445;28;20039;-83
2023/05/19 00:52:53;;;;;;;0.00;0.00;;;;;;;;;;4954973;28;20070;-82
2023/05/19 00:55:20;;;;;;;0.00;0.00;;;;;;;;;;4954590;29;20045;-83
2023/05/19 00:57:47;;;;;;;0.00;0.00;;;;;;;;;;4953393;28;20051;-83
2023/05/19 01:00:13;;;;;;;0.00;0.00;;;;;;;;;;4954488;28;20046;-82
2023/05/19 01:02:40;;;;;;;0.00;0.00;;;;;;;;;;4953092;29;20062;-83
2023/05/19 01:05:06;;;;;;;0.00;0.00;;;;;;;;;;4952962;29;20503;-83
2023/05/19 01:07:32;;;;;;;0.00;0.00;;;;;;;;;;4953447;29;20043;-82
2023/05/19 01:09:58;;;;;;;0.00;0.00;;;;;;;;;;4936816;29;20050;-83
2023/05/19 01:12:25;;;;;;;0.00;0.00;;;;;;;;;;4953445;29;20051;-83
2023/05/19 01:14:51;;;;;;;0.00;0.00;;;;;;;;;;4953187;29;20391;-83
2023/05/19 01:17:39;;;;;;;0.00;0.00;;;;;;;;;;4953282;29;20043;-83
2023/05/19 01:20:05;;;;;;;0.00;0.00;;;;;;;;;;4953024;28;20086;-83
2023/05/19 01:23:00;;;;;;;0.00;0.00;;;;;;;;;;4954078;28;20039;-83
2023/05/19 01:25:36;;;;;;;0.00;0.00;;;;;;;;;;4902527;28;20055;-83
2023/05/19 01:28:20;;;;;;;0.00;0.00;;;;;;;;;;4954315;29;20058;-83
2023/05/19 01:30:50;;;;;;;0.00;0.00;;;;;;;;;;4936572;29;20080;-83
2023/05/19 01:33:16;;;;;;;0.00;0.00;;;;;;;;;;4953149;28;20066;-83
2023/05/19 01:35:43;;;;;;;0.00;0.00;;;;;;;;;;4954036;29;20051;-83
2023/05/19 01:38:10;;;;;;;0.38;0.05;;;;;;;;;;4954162;29;20126;-83
2023/05/19 01:40:37;;;;;;;0.00;0.00;;;;;;;;;;4936654;29;20047;-83
2023/05/19 01:43:03;;;;;;;0.00;0.00;;;;;;;;;;4954173;29;20047;-83
2023/05/19 01:45:30;;;;;;;0.00;0.00;;;;;;;;;;4954024;29;20254;-82
2023/05/19 01:47:56;;;;;;;0.00;0.00;;;;;;;;;;4953069;29;20517;-83
2023/05/19 01:50:22;;;;;;;0.00;0.00;;;;;;;;;;4953768;28;20043;-83
2023/05/19 01:52:48;;;;;;;0.00;0.00;;;;;;;;;;4952796;29;20055;-83
2023/05/19 01:55:14;;;;;;;0.00;0.00;;;;;;;;;;4952501;29;20050;-83
2023/05/19 01:57:51;;;;;;;0.00;0.00;;;;;;;;;;4952943;29;20059;-82
2023/05/19 02:00:20;;;;;;;0.00;0.00;;;;;;;;;;4953703;28;20051;-83
2023/05/19 02:03:25;;;;;;;0.22;0.10;;;;;;;;;;4954097;29;20042;-83
2023/05/19 02:06:10;;;;;;;0.00;0.00;;;;;;;;;;4879157;29;20382;-83
2023/05/19 02:08:41;;;;;;;0.00;0.00;;;;;;;;;;4879299;29;20045;-83
2023/05/19 02:11:12;;;;;;;0.00;0.00;;;;;;;;;;4932369;28;20051;-82
2023/05/19 02:13:41;;;;;;;0.00;0.00;;;;;;;;;;4952478;29;20047;-83
2023/05/19 02:16:07;;;;;;;0.00;0.00;;;;;;;;;;4953675;29;20096;-83
2023/05/19 02:18:34;;;;;;;0.00;0.00;;;;;;;;;;4953902;29;20242;-82
2023/05/19 02:21:00;;;;;;;0.00;0.00;;;;;;;;;;4952492;28;20067;-83
2023/05/19 02:23:26;;;;;;;0.00;0.00;;;;;;;;;;4953727;29;20122;-83
2023/05/19 02:25:52;;;;;;;0.00;0.00;;;;;;;;;;4952222;29;20087;-83
2023/05/19 02:28:18;;;;;;;0.00;0.00;;;;;;;;;;4952448;29;20101;-83
2023/05/19 02:30:44;;;;;;;0.00;0.00;;;;;;;;;;4952427;28;20180;-83
2023/05/19 02:33:10;;;;;;;0.00;0.00;;;;;;;;;;4952440;28;20127;-83
2023/05/19 02:35:36;;;;;;;0.00;0.00;;;;;;;;;;4954986;29;20122;-83
2023/05/19 02:38:02;;;;;;;0.00;0.00;;;;;;;;;;4957355;29;20066;-85
2023/05/19 02:40:28;;;;;;;0.00;0.00;;;;;;;;;;4955569;28;20047;-83
2023/05/19 02:42:54;;;;;;;0.00;0.00;;;;;;;;;;4955652;29;20049;-83
2023/05/19 02:45:20;;;;;;;0.00;0.00;;;;;;;;;;4956047;29;20039;-82
2023/05/19 02:47:46;;;;;;;0.32;0.03;;;;;;;;;;4956781;29;20074;-82
2023/05/19 02:50:12;;;;;;;0.00;0.00;;;;;;;;;;4957052;28;20399;-83
2023/05/19 02:52:38;;;;;;;0.00;0.00;;;;;;;;;;4955629;29;20091;-83
2023/05/19 02:55:04;;;;;;;0.00;0.00;;;;;;;;;;4955760;29;20051;-83
2023/05/19 02:57:32;;;;;;;0.00;0.00;;;;;;;;;;4955314;29;20456;-83
2023/05/19 02:59:58;;;;;;;0.00;0.00;;;;;;;;;;4955628;28;20467;-83
2023/05/19 03:02:24;;;;;;;0.00;0.00;;;;;;;;;;4956774;29;20122;-82
2023/05/19 03:04:50;;;;;;;0.00;0.00;;;;;;;;;;4955359;29;20191;-83
2023/05/19 03:07:16;;;;;;;0.00;0.00;;;;;;;;;;4955235;29;20468;-83
2023/05/19 03:09:42;;;;;;;0.00;0.00;;;;;;;;;;4955417;28;20203;-83
2023/05/19 03:12:08;;;;;;;0.00;0.00;;;;;;;;;;4955180;29;20039;-83
2023/05/19 03:14:36;;;;;;;0.00;0.00;;;;;;;;;;4955375;29;20058;-83
2023/05/19 03:17:02;;;;;;;0.00;0.00;;;;;;;;;;4956568;29;20043;-83
2023/05/19 03:19:31;;;;;;;0.00;0.00;;;;;;;;;;4956387;28;20411;-82
2023/05/19 03:21:57;;;;;;;0.00;0.00;;;;;;;;;;4956165;29;20043;-83
2023/05/19 03:24:23;;;;;;;0.00;0.00;;;;;;;;;;4955080;29;20046;-83
2023/05/19 03:26:49;;;;;;;0.00;0.00;;;;;;;;;;4956476;29;20035;-83
2023/05/19 03:29:15;;;;;;;0.00;0.00;;;;;;;;;;4955147;28;20082;-83
2023/05/19 03:31:41;;;;;;;0.00;0.00;;;;;;;;;;4956348;29;20039;-83
2023/05/19 03:34:07;;;;;;;0.00;0.00;;;;;;;;;;4956694;29;20452;-83
2023/05/19 03:36:38;;;;;;;0.00;0.00;;;;;;;;;;4956649;29;20131;-83
2023/05/19 03:39:04;;;;;;;0.00;0.00;;;;;;;;;;4956594;28;20047;-83
2023/05/19 03:41:30;;;;;;;0.00;0.00;;;;;;;;;;4956133;29;20050;-83
2023/05/19 03:43:56;;;;;;;0.00;0.00;;;;;;;;;;4954671;29;20043;-83
2023/05/19 03:46:22;;;;;;;0.00;0.00;;;;;;;;;;4955299;28;20035;-83
2023/05/19 03:48:48;;;;;;;0.00;0.00;;;;;;;;;;4938779;29;20058;-83
2023/05/19 03:51:14;;;;;;;0.00;0.00;;;;;;;;;;4954552;28;20054;-83
2023/05/19 03:53:40;;;;;;;0.00;0.00;;;;;;;;;;4954740;29;20074;-83
2023/05/19 03:56:06;;;;;;;0.00;0.00;;;;;;;;;;4955937;29;20066;-83
2023/05/19 03:58:33;;;;;;;0.00;0.00;;;;;;;;;;4954662;29;20130;-83
2023/05/19 04:00:59;;;;;;;0.00;0.00;;;;;;;;;;4955523;28;20499;-83
2023/05/19 04:03:25;;;;;;;0.00;0.00;;;;;;;;;;4954026;29;20134;-83
2023/05/19 04:05:51;;;;;;;0.00;0.00;;;;;;;;;;4955769;29;20047;-83
2023/05/19 04:08:17;;;;;;;0.00;0.00;;;;;;;;;;4954068;29;20051;-83
2023/05/19 04:10:43;;;;;;;0.00;0.00;;;;;;;;;;4955742;28;20058;-83
2023/05/19 04:13:10;;;;;;;0.00;0.00;;;;;;;;;;4955397;29;20486;-83
2023/05/19 04:15:36;;;;;;;0.00;0.00;;;;;;;;;;4954202;28;20043;-83
2023/05/19 04:18:02;;;;;;;0.00;0.00;;;;;;;;;;4955529;29;20047;-83
2023/05/19 04:20:28;;;;;;;0.00;0.00;;;;;;;;;;4954157;28;20053;-83
2023/05/19 04:22:54;;;;;;;0.00;0.00;;;;;;;;;;4953830;29;20047;-83
2023/05/19 04:25:20;;;;;;;0.00;0.00;;;;;;;;;;4954411;28;20086;-83
2023/05/19 04:27:47;;;;;;;0.00;0.00;;;;;;;;;;4953833;29;20043;-83
2023/05/19 04:30:20;;;;;;;0.00;0.00;;;;;;;;;;4938097;29;20491;-83
2023/05/19 04:32:47;;;;;;;0.00;0.00;;;;;;;;;;4956052;29;20039;-83
2023/05/19 04:35:14;;;;;;;0.00;0.00;;;;;;;;;;4955139;29;20054;-83
2023/05/19 04:37:40;;;;;;;0.00;0.00;;;;;;;;;;4953882;28;20043;-83
2023/05/19 04:40:09;;;;;;;0.00;0.00;;;;;;;;;;4955165;28;20054;-83
2023/05/19 04:42:35;;;;;;;0.00;0.00;;;;;;;;;;4954598;29;20388;-83
2023/05/19 04:45:04;;;;;;;0.00;0.00;;;;;;;;;;4954945;29;20074;-83
2023/05/19 04:47:30;;;;;;;0.00;0.00;;;;;;;;;;4954805;29;20062;-83
2023/05/19 04:49:56;;;;;;;0.00;0.00;;;;;;;;;;4954790;28;20479;-83
2023/05/19 04:52:22;;;;;;;0.00;0.00;;;;;;;;;;4954614;29;20043;-83
2023/05/19 04:54:48;;;;;;;0.00;0.00;;;;;;;;;;4953442;29;20057;-83
2023/05/19 04:57:14;;;;;;;0.00;0.00;;;;;;;;;;4953888;28;20122;-83
2023/05/19 04:59:40;;;;;;;0.00;0.00;;;;;;;;;;4954747;28;20475;-83
2023/05/19 05:02:06;;;;;;;0.00;0.00;;;;;;;;;;4953180;29;20043;-83
2023/05/19 05:04:32;;;;;;;0.00;0.00;;;;;;;;;;4954453;29;20090;-83
2023/05/19 05:06:58;;;;;;;0.00;0.00;;;;;;;;;;4953045;29;20062;-83
2023/05/19 05:09:24;;;;;;;0.00;0.00;;;;;;;;;;4953304;28;20043;-84
2023/05/19 05:11:50;;;;;;;0.00;0.00;;;;;;;;;;4953886;29;20046;-83
2023/05/19 05:14:16;;;;;;;0.00;0.00;;;;;;;;;;4953253;29;20325;-83
2023/05/19 05:16:42;;;;;;;0.00;0.00;;;;;;;;;;4954514;29;20082;-83
2023/05/19 05:19:09;;;;;;;0.00;0.00;;;;;;;;;;4954118;28;20063;-82
2023/05/19 05:21:35;;;;;;;0.00;0.00;;;;;;;;;;4954391;29;20478;-81
2023/05/19 05:24:01;;;;;;;0.00;0.00;;;;;;;;;;4952813;29;20051;-82
2023/05/19 05:26:29;;;;;;;0.00;0.00;;;;;;;;;;4954618;29;20039;-82
2023/05/19 05:28:55;;;;;;;0.00;0.00;;;;;;;;;;4952780;28;20079;-82
2023/05/19 05:31:21;;;;;;;0.00;0.00;;;;;;;;;;4937125;29;20071;-82
2023/05/19 05:33:47;;;;;;;0.00;0.00;;;;;;;;;;4952873;29;20056;-82
2023/05/19 05:36:13;;;;;;;0.00;0.00;;;;;;;;;;4953302;29;20184;-82
2023/05/19 05:38:39;;;;;;;0.00;0.00;;;;;;;;;;4952770;29;20146;-82
2023/05/19 05:41:05;;;;;;;0.00;0.00;;;;;;;;;;4954003;28;20039;-83
2023/05/19 05:43:31;;;;;;;0.00;0.00;;;;;;;;;;4953977;29;20050;-82
2023/05/19 05:45:57;;;;;;;0.00;0.00;;;;;;;;;;4952844;29;20041;-82
2023/05/19 05:48:23;;;;;;;0.00;0.00;;;;;;;;;;4953885;29;20090;-83
2023/05/19 05:50:50;;;;;;;0.00;0.00;;;;;;;;;;4952691;28;20095;-82
2023/05/19 05:53:20;;;;;;;0.00;0.00;;;;;;;;;;4954094;29;20131;-82
2023/05/19 05:55:46;;;;;;;0.00;0.00;;;;;;;;;;4954042;29;20499;-82
2023/05/19 05:58:13;;;;;;;0.00;0.00;;;;;;;;;;4953945;29;20135;-83
2023/05/19 06:00:42;;;;;;;0.00;0.00;;;;;;;;;;4952493;28;20055;-82
2023/05/19 06:03:09;;;;;;;0.00;0.00;;;;;;;;;;4953742;29;20047;-83
2023/05/19 06:05:35;;;;;;;0.00;0.00;;;;;;;;;;4952962;29;20146;-83
2023/05/19 06:08:01;;;;;;;0.00;0.00;;;;;;;;;;4954350;28;20149;-83
2023/05/19 06:10:28;;;;;;;0.00;0.00;;;;;;;;;;4956448;28;20120;-83
2023/05/19 06:12:54;;;;;;;0.00;0.00;;;;;;;;;;4956298;29;20054;-83
2023/05/19 06:15:21;;;;;;;0.00;0.00;;;;;;;;;;4957535;29;20112;-83
2023/05/19 06:17:47;;;;;;;0.00;0.00;;;;;;;;;;4957587;29;20047;-83
2023/05/19 06:20:13;;;;;;;0.00;0.00;;;;;;;;;;4956193;28;20498;-83
2023/05/19 06:22:39;;;;;;;0.00;0.00;;;;;;;;;;4957272;29;20368;-84
2023/05/19 06:25:07;;;;;;;0.00;0.00;;;;;;;;;;4955945;29;20050;-83
2023/05/19 06:27:33;;;;;;;0.00;0.00;;;;;;;;;;4940122;29;20088;-84
2023/05/19 06:29:59;;;;;;;0.00;0.00;;;;;;;;;;4955762;28;20047;-83
2023/05/19 06:32:25;;;;;;;0.00;0.00;;;;;;;;;;4956045;29;20455;-83
2023/05/19 06:34:54;;;;;;;0.00;0.00;;;;;;;;;;4957344;29;20051;-83
2023/05/19 06:37:23;;;;;;;0.00;0.00;;;;;;;;;;4956261;29;20451;-83
2023/05/19 06:39:51;;;;;;;0.00;0.00;;;;;;;;;;4957128;28;20047;-84
2023/05/19 06:42:21;;;;;;;0.00;0.00;;;;;;;;;;4955912;29;20078;-84
2023/05/19 06:44:51;;;;;;;0.00;0.00;;;;;;;;;;4955663;29;20047;-84
2023/05/19 06:47:17;;;;;;;0.00;0.00;;;;;;;;;;4956151;29;20058;-84
2023/05/19 06:49:49;;;;;;;0.00;0.00;;;;;;;;;;4956783;28;20122;-84
2023/05/19 06:52:16;;;;;;;0.00;0.00;;;;;;;;;;4955848;29;20047;-83
2023/05/19 06:54:42;;;;;;;0.00;0.00;;;;;;;;;;4955621;29;20047;-84
2023/05/19 06:57:08;;;;;;;0.00;0.00;;;;;;;;;;4955419;29;20569;-83
2023/05/19 06:59:36;;;;;;;0.00;0.00;;;;;;;;;;4955302;28;20046;-83
2023/05/19 07:02:03;;;;;;;0.00;0.00;;;;;;;;;;4955542;29;20075;-84
2023/05/19 07:04:29;;;;;;;0.00;0.00;;;;;;;;;;4939276;29;20051;-83
2023/05/19 07:06:55;;;;;;;0.00;0.00;;;;;;;;;;4955459;29;20066;-84
2023/05/19 07:09:21;;;;;;;0.00;0.00;;;;;;;;;;4955105;28;20047;-84
2023/05/19 07:11:47;;;;;;;0.08;0.00;;;;;;;;;;4956704;29;20043;-84
2023/05/19 07:14:13;;;;;;;0.00;0.00;;;;;;;;;;4955310;29;20051;-84
2023/05/19 07:16:39;;;;;;;0.00;0.00;;;;;;;;;;4955580;29;20051;-84
2023/05/19 07:19:05;;;;;;;0.00;0.00;;;;;;;;;;4956346;28;20054;-84
2023/05/19 07:21:31;;;;;;;0.00;0.00;;;;;;;;;;4954851;28;20043;-83
2023/05/19 07:23:57;;;;;;;0.00;0.00;;;;;;;;;;4954835;29;20102;-83
2023/05/19 07:26:23;;;;;;;0.00;0.00;;;;;;;;;;4956572;29;20398;-84
2023/05/19 07:28:49;;;;;;;0.05;0.00;;;;;;;;;;4955054;29;20043;-83
2023/05/19 07:31:16;;;;;;;1.23;1.13;;;;;;;;;;4954785;28;20408;-83
2023/05/19 07:33:42;;;;;;;0.00;0.00;;;;;;;;;;4955967;29;20046;-83
2023/05/19 07:36:08;;;;;;;0.00;0.00;;;;;;;;;;4954837;29;20046;-83
2023/05/19 07:38:34;;;;;;;0.00;0.00;;;;;;;;;;4954736;29;20118;-84
2023/05/19 07:41:01;;;;;;;0.00;0.00;;;;;;;;;;4956217;28;20074;-84
2023/05/19 07:43:27;;;;;;;0.00;0.00;;;;;;;;;;4954626;29;20047;-84
2023/05/19 07:45:54;;;;;;;0.00;0.00;;;;;;;;;;4956001;29;20035;-83
2023/05/19 07:48:21;;;;;;;0.00;0.00;;;;;;;;;;4956107;29;20043;-84
2023/05/19 07:50:48;;;;;;;0.00;0.00;;;;;;;;;;4938649;29;20040;-84
2023/05/19 07:53:14;;;;;;;0.00;0.00;;;;;;;;;;4938648;29;20039;-83
2023/05/19 07:55:40;;;;;;;0.00;0.00;;;;;;;;;;4954341;29;20043;-83
2023/05/19 07:58:06;;;;;;;0.00;0.00;;;;;;;;;;4954731;29;20043;-83
2023/05/19 08:00:32;;;;;;;0.00;0.00;;;;;;;;;;4954195;28;20050;-85
2023/05/19 08:03:00;;;;;;;0.00;0.00;;;;;;;;;;4955668;29;20054;-84
2023/05/19 08:05:26;;;;;;;0.00;0.00;;;;;;;;;;4955387;29;20047;-84
2023/05/19 08:07:52;;;;;;;0.00;0.00;;;;;;;;;;4954481;29;20049;-83
2023/05/19 08:10:18;;;;;;;0.00;0.00;;;;;;;;;;4954262;28;20047;-83
2023/05/19 08:12:44;;;;;;;0.00;0.00;;;;;;;;;;4954292;29;20038;-84
2023/05/19 08:15:11;;;;;;;0.00;0.00;;;;;;;;;;4954086;29;20051;-83
2023/05/19 08:17:37;;;;;;;0.00;0.00;;;;;;;;;;4954560;29;20058;-84
2023/05/19 08:20:05;;;;;;;0.00;0.00;;;;;;;;;;4955196;28;20125;-84
2023/05/19 08:22:31;;;;;;;0.00;0.00;;;;;;;;;;4955227;29;20079;-84
2023/05/19 08:24:57;;;;;;;0.00;0.00;;;;;;;;;;4955400;29;20054;-83
2023/05/19 08:27:23;;;;;;;0.00;0.00;;;;;;;;;;4954322;29;20047;-84
2023/05/19 08:29:49;;;;;;;0.00;0.00;;;;;;;;;;4953943;28;20486;-84
2023/05/19 08:32:16;;;;;;;0.00;0.00;;;;;;;;;;4952999;28;20094;-83
2023/05/19 08:34:42;;;;;;;0.00;0.00;;;;;;;;;;4954113;29;20047;-84
2023/05/19 08:37:08;;;;;;;0.00;0.00;;;;;;;;;;4955117;29;20053;-83
2023/05/19 08:39:34;;;;;;;0.90;0.40;;;;;;;;;;4955103;28;20122;-83
2023/05/19 08:42:01;;;;;;;0.00;0.00;;;;;;;;;;4955092;29;20563;-84
2023/05/19 08:44:27;;;;;;;0.00;0.00;;;;;;;;;;4953712;29;20344;-84
2023/05/19 08:46:55;;;;;;;0.00;0.00;;;;;;;;;;4953739;29;20474;-84
2023/05/19 08:49:29;;;;;;;0.00;0.00;;;;;;;;;;4954823;28;20380;-84
2023/05/19 08:52:00;;;;;;;0.00;0.00;;;;;;;;;;4953960;29;20047;-83
2023/05/19 08:54:29;;;;;;;0.00;0.00;;;;;;;;;;4938062;29;20050;-83
2023/05/19 08:56:56;;;;;;;0.00;0.00;;;;;;;;;;4953946;29;20043;-83
2023/05/19 08:59:22;;;;;;;0.00;0.00;;;;;;;;;;4953702;28;20070;-84
2023/05/19 09:01:48;;;;;;;0.00;0.00;;;;;;;;;;4953874;29;20050;-83
2023/05/19 09:04:15;;;;;;;0.00;0.00;;;;;;;;;;4954628;29;20138;-83
2023/05/19 09:06:43;;;;;;;0.00;0.00;;;;;;;;;;4953460;29;20043;-83
2023/05/19 09:09:09;;;;;;;0.00;0.00;;;;;;;;;;4937417;28;20043;-83
2023/05/19 09:11:38;;;;;;;0.00;0.00;;;;;;;;;;4953468;29;20043;-83
2023/05/19 09:14:05;;;;;;;0.00;0.00;;;;;;;;;;4954669;29;20043;-83
2023/05/19 09:16:31;;;;;;;0.00;0.00;;;;;;;;;;4953281;29;20179;-83
2023/05/19 09:18:57;;;;;;;0.00;0.00;;;;;;;;;;4954477;28;20482;-82
2023/05/19 09:21:30;;;;;;;0.00;0.00;;;;;;;;;;4954560;29;20121;-83
2023/05/19 09:23:57;;;;;;;0.00;0.00;;;;;;;;;;4954615;29;20066;-83
2023/05/19 09:26:24;;;;;;;0.00;0.00;;;;;;;;;;4954430;29;20055;-83
2023/05/19 09:28:50;;;;;;;0.00;0.00;;;;;;;;;;4953043;29;20039;-83
2023/05/19 09:31:16;;;;;;;0.00;0.00;;;;;;;;;;4954025;28;20478;-83
2023/05/19 09:33:42;;;;;;;0.00;0.00;;;;;;;;;;4953066;29;20047;-83
2023/05/19 09:36:10;;;;;;;0.00;0.00;;;;;;;;;;4952907;29;20406;-81
2023/05/19 09:38:37;;;;;;;0.00;0.00;;;;;;;;;;4953386;29;20491;-81
2023/05/19 09:41:04;;;;;;;0.00;0.00;;;;;;;;;;4954026;28;20043;-81
2023/05/19 09:43:34;;;;;;;0.00;0.00;;;;;;;;;;4955412;28;20040;-84
2023/05/19 09:46:00;;;;;;;0.00;0.00;;;;;;;;;;4956719;29;20043;-84
2023/05/19 09:48:26;;;;;;;0.00;0.00;;;;;;;;;;4958324;29;20035;-84
2023/05/19 09:50:53;;;;;;;0.00;0.00;;;;;;;;;;4956745;28;20035;-82
2023/05/19 09:53:20;;;;;;;0.00;0.00;;;;;;;;;;4958587;29;20070;-82
2023/05/19 09:55:47;;;;;;;0.00;0.00;;;;;;;;;;4957946;29;20118;-82
2023/05/19 09:58:17;;;;;;;0.00;0.00;;;;;;;;;;4958020;29;20491;-81
2023/05/19 10:00:43;;;;;;;0.00;0.00;;;;;;;;;;4957172;28;20085;-82
2023/05/19 10:03:10;;;;;;;0.00;0.00;;;;;;;;;;4956496;29;20054;-82
2023/05/19 10:05:37;;;;;;;0.00;0.00;;;;;;;;;;4956633;29;20266;-81
2023/05/19 10:08:06;;;;;;;0.00;0.00;;;;;;;;;;4956744;29;20043;-81
2023/05/19 10:10:32;;;;;;;0.00;0.00;;;;;;;;;;4940321;29;20039;-81
2023/05/19 10:12:59;;;;;;;0.00;0.00;;;;;;;;;;4957876;29;20035;-81
2023/05/19 10:15:26;;;;;;;0.00;0.00;;;;;;;;;;4956548;29;20487;-81
2023/05/19 10:17:52;;;;;;;0.00;0.00;;;;;;;;;;4956453;29;20487;-84
2023/05/19 10:20:18;;;;;;;0.00;0.00;;;;;;;;;;4940307;29;20561;-82
2023/05/19 10:22:45;;;;;;;0.00;0.00;;;;;;;;;;4956930;29;20473;-80
2023/05/19 10:25:17;;;;;;;0.00;0.00;;;;;;;;;;4957261;29;20102;-80
2023/05/19 10:27:50;;;;;;;0.00;0.00;;;;;;;;;;4956552;29;20043;-82
2023/05/19 10:30:42;;;;;;;0.00;0.00;;;;;;;;;;4955899;28;20395;-81
2023/05/19 10:33:10;;;;;;;0.00;0.00;;;;;;;;;;4955000;29;20082;-80
2023/05/19 10:35:51;;;;;;;0.00;0.00;;;;;;;;;;4956103;29;20126;-81
2023/05/19 10:38:38;;;;;;;0.00;0.00;;;;;;;;;;4957592;29;20110;-81
2023/05/19 10:41:10;;;;;;;0.00;0.00;;;;;;;;;;4939815;29;20079;-83
2023/05/19 10:43:44;;;;;;;0.00;0.00;;;;;;;;;;4955952;29;20039;-83
2023/05/19 10:46:10;;;;;;;0.00;0.00;;;;;;;;;;4957011;29;20051;-83
2023/05/19 10:48:36;;;;;;;0.00;0.00;;;;;;;;;;4956002;29;20453;-83
2023/05/19 10:51:03;;;;;;;0.00;0.00;;;;;;;;;;4957016;28;20172;-83
2023/05/19 10:53:33;;;;;;;0.00;0.00;;;;;;;;;;4957492;28;20101;-83
2023/05/19 10:56:05;;;;;;;0.00;0.00;;;;;;;;;;4954678;28;20054;-83
2023/05/19 10:58:50;;;;;;;0.00;0.00;;;;;;;;;;4955683;29;20050;-83
2023/05/19 11:01:23;;;;;;;0.00;0.00;;;;;;;;;;4956961;28;20047;-81
2023/05/19 11:03:53;;;;;;;0.00;0.00;;;;;;;;;;4955597;29;20419;-82
2023/05/19 11:06:20;;;;;;;0.15;0.03;;;;;;;;;;4956617;29;20066;-82
2023/05/19 11:08:46;;;;;;;0.25;0.25;;;;;;;;;;4956482;28;20058;-81
2023/05/19 11:11:16;;;;;;;0.00;0.00;;;;;;;;;;4956571;28;20050;-83
2023/05/19 11:13:52;;;;;;;0.00;0.00;;;;;;;;;;4955441;29;20126;-83
2023/05/19 11:16:19;;;;;;;0.00;0.00;;;;;;;;;;4955586;29;20115;-83
2023/05/19 11:18:49;;;;;;;0.00;0.00;;;;;;;;;;4955490;29;20118;-83
2023/05/19 11:21:15;;;;;;;0.00;0.00;;;;;;;;;;4955427;28;20101;-83
2023/05/19 11:23:42;;;;;;;0.00;0.00;;;;;;;;;;4955521;29;20039;-85
2023/05/19 11:26:08;;;;;;;0.00;0.00;;;;;;;;;;4955519;29;20047;-87
2023/05/19 11:28:35;;;;;;;0.00;0.00;;;;;;;;;;4956821;29;20446;-84
2023/05/19 11:31:01;;;;;;;0.00;0.00;;;;;;;;;;4954903;28;20368;-84
2023/05/19 11:33:27;;;;;;;0.00;0.00;;;;;;;;;;4955513;29;20175;-84
2023/05/19 11:35:58;;;;;;;0.00;0.00;;;;;;;;;;4956023;29;20055;-86
2023/05/19 11:38:24;;;;;;;0.00;0.00;;;;;;;;;;4955212;29;20043;-83
2023/05/19 11:40:52;;;;;;;0.00;0.00;;;;;;;;;;4956306;28;20043;-83
2023/05/19 11:43:18;;;;;;;0.00;0.00;;;;;;;;;;4954968;29;20071;-86
2023/05/19 11:45:45;;;;;;;0.00;0.00;;;;;;;;;;4955271;29;20135;-84
2023/05/19 11:48:11;;;;;;;0.00;0.00;;;;;;;;;;4939076;29;20432;-84
2023/05/19 11:50:40;;;;;;;0.25;0.00;;;;;;;;;;4956065;28;20075;-84
2023/05/19 11:53:06;;;;;;;0.00;0.00;;;;;;;;;;4956279;29;20043;-84
2023/05/19 11:55:32;;;;;;;0.00;0.00;;;;;;;;;;4956062;29;20047;-83
2023/05/19 11:57:59;;;;;;;0.00;0.00;;;;;;;;;;4954534;29;20511;-83
2023/05/19 12:00:25;;;;;;;0.00;0.00;;;;;;;;;;4954520;28;20051;-83
2023/05/19 12:02:51;;;;;;;0.00;0.00;;;;;;;;;;4938677;29;20129;-83
2023/05/19 12:05:21;;;;;;;0.00;0.00;;;;;;;;;;4955640;29;20051;-84
2023/05/19 12:07:51;;;;;;;0.00;0.00;;;;;;;;;;4955237;28;20093;-84
2023/05/19 12:10:18;;;;;;;0.00;0.00;;;;;;;;;;4954543;28;20090;-85
2023/05/19 12:12:45;;;;;;;0.00;0.00;;;;;;;;;;4954300;29;20058;-85
2023/05/19 12:15:11;;;;;;;0.00;0.00;;;;;;;;;;4955933;29;20178;-84
2023/05/19 12:17:37;;;;;;;0.00;0.00;;;;;;;;;;4954368;29;20078;-85
2023/05/19 12:20:03;;;;;;;0.00;0.00;;;;;;;;;;4953999;28;20180;-84
2023/05/19 12:22:29;;;;;;;0.00;0.00;;;;;;;;;;4954026;29;20043;-84
2023/05/19 12:24:56;;;;;;;0.00;0.00;;;;;;;;;;4955456;29;20036;-83
2023/05/19 12:27:25;;;;;;;0.38;0.00;;;;;;;;;;4953641;29;20075;-85
2023/05/19 12:29:56;;;;;;;0.00;0.00;;;;;;;;;;4954988;28;20483;-85
2023/05/19 12:32:28;;;;;;;0.00;0.00;;;;;;;;;;4953500;29;20070;-85
2023/05/19 12:34:57;;;;;;;0.00;0.00;;;;;;;;;;4955320;29;20035;-84
2023/05/19 12:37:26;;;;;;;0.00;0.00;;;;;;;;;;4954976;29;20046;-85
2023/05/19 12:39:52;;;;;;;0.00;0.00;;;;;;;;;;4954960;28;20035;-86
2023/05/19 12:42:19;;;;;;;0.00;0.00;;;;;;;;;;4953422;29;20058;-85
2023/05/19 12:44:46;;;;;;;0.00;0.00;;;;;;;;;;4954010;29;20048;-84
2023/05/19 12:47:13;;;;;;;0.00;0.00;;;;;;;;;;4954856;29;20050;-82
2023/05/19 12:49:58;;;;;;;0.00;0.00;;;;;;;;;;4954930;28;20050;-82
2023/05/19 12:52:24;;;;;;;0.00;0.00;;;;;;;;;;4937440;29;20074;-82
2023/05/19 12:54:57;;;;;;;0.00;0.00;;;;;;;;;;4953748;29;20047;-82
2023/05/19 12:57:23;;;;;;;0.00;0.00;;;;;;;;;;4954558;29;20058;-82
2023/05/19 12:59:49;;;;;;;0.00;0.00;;;;;;;;;;4953224;28;20043;-82
2023/05/19 13:02:15;;;;;;;0.00;0.00;;;;;;;;;;4953524;29;20119;-82
2023/05/19 13:04:41;;;;;;;0.00;0.00;;;;;;;;;;4954493;29;20081;-81
2023/05/19 13:07:07;;;;;;;0.00;0.00;;;;;;;;;;4954405;29;20065;-81
2023/05/19 13:09:35;;;;;;;0.00;0.00;;;;;;;;;;4954282;28;20073;-82
2023/05/19 13:12:03;;;;;;;0.00;0.00;;;;;;;;;;4953055;28;20043;-81
2023/05/19 13:14:29;;;;;;;0.00;0.00;;;;;;;;;;4954666;29;20121;-81
2023/05/19 13:16:55;;;;;;;0.00;0.00;;;;;;;;;;4954421;29;20256;-81
2023/05/19 13:19:21;;;;;;;0.00;0.00;;;;;;;;;;4952647;28;20313;-81
2023/05/19 13:21:48;;;;;;;0.00;0.00;;;;;;;;;;4953079;29;20058;-81
2023/05/19 13:24:14;;;;;;;0.00;0.00;;;;;;;;;;4953153;28;20050;-81
2023/05/19 13:26:40;;;;;;;0.00;0.00;;;;;;;;;;4953028;29;20043;-81
2023/05/19 13:29:07;;;;;;;0.00;0.00;;;;;;;;;;4954254;28;20042;-82
2023/05/19 13:31:33;;;;;;;0.00;0.00;;;;;;;;;;4954109;29;20047;-82
2023/05/19 13:33:59;;;;;;;0.00;0.00;;;;;;;;;;4953144;29;20121;-81
2023/05/19 13:36:26;;;;;;;0.00;0.00;;;;;;;;;;4954355;29;20094;-81
2023/05/19 13:38:52;;;;;;;0.00;0.00;;;;;;;;;;4954013;29;20066;-81
2023/05/19 13:41:23;;;;;;;0.00;0.00;;;;;;;;;;4954404;28;20478;-81
2023/05/19 13:43:49;;;;;;;0.00;0.00;;;;;;;;;;4954115;29;20090;-82
2023/05/19 13:46:15;;;;;;;0.00;0.00;;;;;;;;;;4954526;29;20074;-81
2023/05/19 13:48:41;;;;;;;0.00;0.00;;;;;;;;;;4953988;29;20067;-81
2023/05/19 13:51:07;;;;;;;0.00;0.00;;;;;;;;;;4954289;28;20046;-83
2023/05/19 13:53:33;;;;;;;0.00;0.00;;;;;;;;;;4954009;29;20054;-83
2023/05/19 13:56:02;;;;;;;0.00;0.00;;;;;;;;;;4953637;29;20063;-83
2023/05/19 13:58:29;;;;;;;0.00;0.00;;;;;;;;;;4954124;29;20051;-83
2023/05/19 14:00:55;;;;;;;0.00;0.00;;;;;;;;;;4953202;28;20056;-83
2023/05/19 14:03:22;;;;;;;0.00;0.00;;;;;;;;;;4953863;29;20380;-83
2023/05/19 14:05:48;;;;;;;0.00;0.00;;;;;;;;;;4954501;29;20178;-84
2023/05/19 14:08:16;;;;;;;0.00;0.00;;;;;;;;;;4954181;29;20095;-81
2023/05/19 14:10:42;;;;;;;0.00;0.00;;;;;;;;;;4953321;28;20071;-81
2023/05/19 14:13:10;;;;;;;0.00;0.00;;;;;;;;;;4952568;29;20047;-81
2023/05/19 14:15:36;;;;;;;0.00;0.00;;;;;;;;;;4953012;28;20047;-81
2023/05/19 14:18:02;;;;;;;0.00;0.00;;;;;;;;;;4952377;29;20050;-81
2023/05/19 14:20:28;;;;;;;0.00;0.00;;;;;;;;;;4952717;28;20176;-81
2023/05/19 14:22:54;;;;;;;0.00;0.00;;;;;;;;;;4952769;29;20788;-81
2023/05/19 14:25:20;;;;;;;0.00;0.00;;;;;;;;;;4936723;29;20122;-81
2023/05/19 14:27:46;;;;;;;0.00;0.00;;;;;;;;;;4953861;29;20047;-81
2023/05/19 14:30:12;;;;;;;0.00;0.00;;;;;;;;;;4955892;28;20043;-81
2023/05/19 14:32:38;;;;;;;0.00;0.00;;;;;;;;;;4955899;29;20105;-81
2023/05/19 14:35:05;;;;;;;0.00;0.00;;;;;;;;;;4956247;29;20119;-81
2023/05/19 14:37:31;;;;;;;0.00;0.00;;;;;;;;;;4956389;29;20043;-81
2023/05/19 14:39:57;;;;;;;0.00;0.00;;;;;;;;;;4957037;28;20542;-81
2023/05/19 14:42:23;;;;;;;0.00;0.00;;;;;;;;;;4956916;29;20090;-81
2023/05/19 14:44:49;;;;;;;0.00;0.00;;;;;;;;;;4955423;29;20479;-82